createdAt,value
2022-07-26T00:04:58.762Z,82.50
2022-07-26T00:10:00.588Z,82.30
2022-07-26T00:15:02.547Z,82.30
2022-07-26T00:20:05.266Z,82.10
2022-07-26T00:25:44.916Z,82.40
2022-07-26T00:31:05.206Z,82.00
2022-07-26T00:36:07.773Z,82.50
2022-07-26T00:41:09.916Z,82.60
2022-07-26T00:46:11.713Z,82.50
2022-07-26T00:51:13.594Z,81.80
2022-07-26T00:56:16.753Z,81.90
2022-07-26T01:01:20.403Z,81.70
2022-07-26T01:06:27.149Z,81.70
2022-07-26T01:11:29.264Z,81.20
2022-07-26T01:16:31.121Z,81.30
2022-07-26T01:21:33.631Z,80.80
2022-07-26T01:26:35.756Z,79.90
2022-07-26T01:31:37.991Z,78.60
2022-07-26T01:36:39.876Z,77.90
2022-07-26T01:41:41.613Z,77.90
2022-07-26T01:46:43.344Z,77.40
2022-07-26T01:51:45.106Z,77.10
2022-07-26T01:56:46.904Z,76.70
2022-07-26T02:01:48.815Z,76.80
2022-07-26T02:06:50.621Z,77.50
2022-07-26T02:11:52.380Z,78.50
2022-07-26T02:16:59.721Z,79.50
2022-07-26T02:22:01.773Z,79.70
2022-07-26T02:27:04.957Z,80.30
2022-07-26T02:32:07.439Z,80.90
2022-07-26T02:37:09.221Z,81.50
2022-07-26T02:42:11.015Z,81.70
2022-07-26T02:47:12.860Z,81.80
2022-07-26T02:52:14.674Z,82.20
2022-07-26T02:57:16.413Z,82.10
2022-07-26T03:02:18.207Z,82.80
2022-07-26T03:07:19.999Z,83.20
2022-07-26T03:12:21.729Z,82.90
2022-07-26T03:17:23.560Z,83.10
2022-07-26T03:22:25.280Z,83.00
2022-07-26T03:27:27.029Z,83.80
2022-07-26T03:32:28.804Z,87.00
2022-07-26T03:37:45.047Z,89.50
2022-07-26T03:42:48.517Z,91.40
2022-07-26T03:47:50.290Z,91.80
2022-07-26T03:52:52.025Z,92.10
2022-07-26T03:57:53.798Z,92.80
2022-07-26T04:02:55.640Z,94.00
2022-07-26T04:07:57.420Z,93.30
2022-07-26T04:12:59.247Z,93.60
2022-07-26T04:18:01.006Z,94.20
2022-07-26T04:23:02.822Z,94.80
2022-07-26T04:28:04.916Z,95.00
2022-07-26T04:33:06.980Z,95.10
2022-07-26T04:38:08.731Z,95.30
2022-07-26T04:43:15.752Z,95.10
2022-07-26T04:48:17.928Z,94.30
2022-07-26T04:53:19.933Z,94.90
2022-07-26T04:58:21.731Z,94.50
2022-07-26T05:03:25.133Z,93.80
2022-07-26T05:08:27.008Z,92.50
2022-07-26T05:13:29.960Z,90.90
2022-07-26T05:18:48.843Z,89.20
2022-07-26T05:23:51.313Z,83.90
2022-07-26T05:28:54.242Z,80.60
2022-07-26T05:33:55.998Z,82.10
2022-07-26T05:38:57.804Z,83.80
2022-07-26T05:43:59.566Z,87.10
2022-07-26T05:49:01.366Z,88.50
2022-07-26T05:54:03.225Z,89.50
2022-07-26T05:59:04.999Z,90.00
2022-07-26T06:04:07.181Z,90.30
2022-07-26T06:09:09.144Z,90.10
2022-07-26T06:14:11.303Z,87.00
2022-07-26T06:19:13.594Z,75.70
2022-07-26T06:24:15.348Z,75.10
2022-07-26T06:29:17.635Z,75.30
2022-07-26T06:34:19.416Z,74.20
2022-07-26T06:39:21.319Z,73.90
2022-07-26T06:44:23.117Z,75.60
2022-07-26T06:49:24.929Z,74.50
2022-07-26T06:54:26.802Z,67.40
2022-07-26T06:59:28.538Z,67.30
2022-07-26T07:04:31.775Z,67.90
2022-07-26T07:09:35.099Z,69.60
2022-07-26T07:14:37.150Z,63.50
2022-07-26T07:19:38.917Z,61.10
2022-07-26T07:24:41.966Z,59.60
2022-07-26T07:29:43.838Z,61.60
2022-07-26T07:34:47.730Z,64.20
2022-07-26T07:39:50.396Z,63.20
2022-07-26T07:44:52.527Z,57.60
2022-07-26T07:49:54.403Z,57.90
2022-07-26T07:55:11.667Z,57.10
2022-07-26T08:00:19.490Z,56.50
2022-07-26T08:05:29.482Z,55.60
2022-07-26T08:10:31.536Z,53.70
2022-07-26T08:15:34.619Z,54.10
2022-07-26T08:20:40.934Z,55.30
2022-07-26T08:25:55.634Z,58.60
2022-07-26T08:30:58.701Z,55.90
2022-07-26T08:36:00.563Z,57.40
2022-07-26T08:41:02.375Z,57.20
2022-07-26T08:46:04.194Z,58.30
2022-07-26T08:51:11.083Z,58.80
2022-07-26T08:56:13.366Z,55.50
2022-07-26T09:01:15.376Z,53.80
2022-07-26T09:06:22.487Z,53.30
2022-07-26T09:11:29.901Z,52.60
2022-07-26T09:16:35.089Z,53.90
2022-07-26T09:21:40.763Z,51.40
2022-07-26T09:26:55.860Z,51.50
2022-07-26T09:32:22.231Z,50.70
2022-07-26T09:37:35.148Z,51.50
2022-07-26T09:42:37.092Z,53.20
2022-07-26T09:47:40.080Z,54.60
2022-07-26T09:53:01.923Z,53.20
2022-07-26T09:58:06.350Z,52.50
2022-07-26T10:03:08.196Z,53.90
2022-07-26T10:08:10.814Z,54.30
2022-07-26T10:13:13.017Z,55.60
2022-07-26T10:18:36.661Z,54.30
2022-07-26T10:23:42.785Z,54.70
2022-07-26T10:28:44.549Z,52.50
2022-07-26T10:33:49.470Z,52.00
2022-07-26T10:39:23.993Z,49.70
2022-07-26T10:44:28.347Z,49.80
2022-07-26T10:49:36.085Z,49.60
2022-07-26T10:55:10.252Z,49.30
2022-07-26T11:00:16.866Z,48.40
2022-07-26T11:05:21.580Z,50.20
2022-07-26T11:10:41.230Z,49.20
2022-07-26T11:15:46.583Z,47.80
2022-07-26T11:20:53.617Z,47.50
2022-07-26T11:26:05.452Z,49.20
2022-07-26T11:31:07.290Z,48.10
2022-07-26T11:36:09.880Z,43.40
2022-07-26T11:41:11.982Z,44.80
2022-07-26T11:46:17.244Z,47.50
2022-07-26T11:51:23.395Z,48.10
2022-07-26T11:56:26.859Z,46.10
2022-07-26T12:01:28.782Z,46.70
2022-07-26T12:06:38.644Z,46.50
2022-07-26T12:11:41.761Z,45.80
2022-07-26T12:16:44.517Z,44.20
2022-07-26T12:21:47.224Z,42.90
2022-07-26T12:27:07.906Z,44.30
2022-07-26T12:32:16.829Z,46.40
2022-07-26T12:37:18.633Z,45.50
2022-07-26T12:42:21.914Z,44.50
2022-07-26T12:47:24.096Z,45.00
2022-07-26T12:52:25.858Z,43.70
2022-07-26T12:57:28.034Z,42.10
2022-07-26T13:02:29.809Z,42.10
2022-07-26T13:07:31.932Z,42.50
2022-07-26T13:12:34.537Z,42.10
2022-07-26T13:17:36.332Z,42.40
2022-07-26T13:22:38.057Z,45.00
2022-07-26T13:27:42.878Z,46.10
2022-07-26T13:32:46.415Z,45.20
2022-07-26T13:37:48.225Z,46.10
2022-07-26T13:42:50.096Z,46.20
2022-07-26T13:47:51.822Z,46.80
2022-07-26T13:52:57.513Z,47.00
2022-07-26T13:57:59.254Z,46.20
2022-07-26T14:03:01.123Z,46.10
2022-07-26T14:08:03.038Z,46.10
2022-07-26T14:13:04.959Z,48.10
2022-07-26T14:18:06.713Z,47.90
2022-07-26T14:23:08.763Z,48.20
2022-07-26T14:28:10.508Z,49.30
2022-07-26T14:33:12.588Z,49.20
2022-07-26T14:38:20.264Z,48.40
2022-07-26T14:43:26.791Z,46.10
2022-07-26T14:48:52.794Z,44.80
2022-07-26T14:53:50.715Z,44.20
2022-07-26T14:58:52.489Z,44.40
2022-07-26T15:03:54.306Z,43.60
2022-07-26T15:08:56.062Z,45.30
2022-07-26T15:14:01.285Z,46.40
2022-07-26T15:19:05.757Z,47.90
2022-07-26T15:24:09.592Z,48.00
2022-07-26T15:29:11.662Z,48.00
2022-07-26T15:34:13.839Z,48.40
2022-07-26T15:39:17.504Z,49.60
2022-07-26T15:44:22.896Z,49.30
2022-07-26T15:49:27.555Z,49.90
2022-07-26T15:54:29.310Z,49.90
2022-07-26T15:59:31.012Z,50.10
2022-07-26T16:04:32.723Z,49.00
2022-07-26T16:09:34.470Z,48.80
2022-07-26T16:14:36.310Z,48.30
2022-07-26T16:19:38.052Z,49.50
2022-07-26T16:24:39.779Z,49.70
2022-07-26T16:29:41.586Z,50.10
2022-07-26T16:34:43.322Z,50.30
2022-07-26T16:39:45.044Z,51.00
2022-07-26T16:44:46.793Z,51.20
2022-07-26T16:49:48.605Z,51.90
2022-07-26T16:54:50.383Z,51.90
2022-07-26T16:59:52.198Z,51.80
2022-07-26T17:04:55.819Z,52.20
2022-07-26T17:09:58.053Z,52.70
2022-07-26T17:15:00.461Z,53.10
2022-07-26T17:20:02.245Z,53.40
2022-07-26T17:25:05.852Z,54.10
2022-07-26T17:30:08.465Z,53.70
2022-07-26T17:35:10.394Z,52.60
2022-07-26T17:40:12.730Z,53.00
2022-07-26T17:45:15.464Z,53.50
2022-07-26T17:55:39.345Z,54.10
2022-07-26T18:00:41.502Z,54.60
2022-07-26T18:05:43.740Z,55.40
2022-07-26T18:10:50.900Z,55.40
2022-07-26T18:15:53.826Z,56.10
2022-07-26T18:20:55.708Z,56.40
2022-07-26T18:25:59.381Z,56.60
2022-07-26T18:31:01.965Z,56.80
2022-07-26T18:36:04.026Z,57.30
2022-07-26T18:41:06.471Z,57.70
2022-07-26T18:46:08.266Z,58.10
2022-07-26T18:51:10.123Z,58.40
2022-07-26T18:56:12.338Z,58.80
2022-07-26T19:01:14.254Z,59.00
2022-07-26T19:06:16.038Z,59.20
2022-07-26T19:11:20.571Z,59.50
2022-07-26T19:16:22.414Z,59.90
2022-07-26T19:21:24.403Z,60.10
2022-07-26T19:26:27.383Z,60.30
2022-07-26T19:31:29.406Z,60.50
2022-07-26T19:36:31.322Z,60.90
2022-07-26T19:41:33.100Z,61.10
2022-07-26T19:46:34.933Z,62.10
2022-07-26T19:51:37.113Z,63.60
2022-07-26T19:56:39.993Z,64.60
2022-07-26T20:01:41.956Z,65.40
2022-07-26T20:06:43.723Z,66.10
2022-07-26T20:11:50.692Z,66.70
2022-07-26T20:16:56.077Z,67.10
2022-07-26T20:21:58.764Z,67.40
2022-07-26T20:27:00.661Z,67.80
2022-07-26T20:32:02.721Z,68.20
2022-07-26T20:37:04.517Z,68.90
2022-07-26T20:42:06.718Z,69.00
2022-07-26T20:47:11.118Z,69.30
2022-07-26T20:52:12.823Z,69.60
2022-07-26T20:57:14.648Z,69.90
2022-07-26T21:02:16.479Z,69.90
2022-07-26T21:07:18.565Z,70.00
2022-07-26T21:12:21.620Z,70.50
2022-07-26T21:17:23.358Z,70.70
2022-07-26T21:22:36.465Z,70.50
2022-07-26T21:27:38.704Z,71.00
2022-07-26T21:32:40.454Z,71.10
2022-07-26T21:37:46.217Z,71.40
2022-07-26T21:42:48.146Z,71.20
2022-07-26T21:47:49.942Z,71.60
2022-07-26T21:52:51.714Z,71.50
2022-07-26T21:57:53.430Z,71.50
2022-07-26T22:02:55.210Z,71.70
2022-07-26T22:07:56.992Z,72.20
2022-07-26T22:12:58.879Z,72.70
2022-07-26T22:18:01.323Z,72.90
2022-07-26T22:23:06.061Z,72.90
2022-07-26T22:28:09.311Z,73.10
2022-07-26T22:33:11.825Z,73.40
2022-07-26T22:38:14.044Z,73.40
2022-07-26T22:43:15.852Z,73.30
2022-07-26T22:48:17.758Z,73.20
2022-07-26T22:53:19.513Z,73.40
2022-07-26T22:58:21.345Z,73.80
2022-07-26T23:03:23.085Z,74.40
2022-07-26T23:13:46.852Z,74.80
2022-07-26T23:18:48.548Z,75.40
2022-07-26T23:23:50.270Z,75.90
2022-07-26T23:28:51.977Z,76.40
2022-07-26T23:33:54.644Z,76.80
2022-07-26T23:38:58.549Z,77.20
2022-07-26T23:44:00.318Z,77.80
2022-07-26T23:49:04.522Z,78.10
2022-07-26T23:54:06.431Z,78.40
2022-07-26T23:59:08.572Z,78.90
